Data for 06/12/2005

Time Sea-Level Adjusted Pressure Absolute Pressure Temperature Relative Humidity Dew Point   
(mb) (inHg) (mb) (inHg) (C) (F) (%) (C) (F)
00:05 1011 29.85 840 24.81 7.9 46.2 86 5.7 42.3
00:10 1011 29.85 840 24.81 7.9 46.2 86 5.7 42.3
00:15 1011 29.85 840 24.81 7.9 46.3 85 5.6 42
00:20 1011 29.85 840 24.81 8 46.3 86 5.7 42.3
00:25 1011 29.85 840 24.81 7.8 46 87 5.7 42.3
00:30 1011 29.85 840 24.81 7.7 45.9 86 5.5 42
00:35 1011 29.85 840 24.81 7.7 45.8 87 5.6 42.1
00:40 1011 29.85 840 24.81 7.6 45.8 87 5.7 42.2
00:45 1011 29.85 840 24.81 7.4 45.4 88 5.7 42.2
00:50 1011 29.85 840 24.81 7.3 45.1 88 5.5 41.9
00:55 1011 29.85 840 24.81 7.3 45.1 88 5.5 41.9
01:00 1011 29.85 840 24.81 7.3 45.1 88 5.4 41.7
01:05 1011 29.85 840 24.81 7.4 45.3 87 5.3 41.6
01:10 1011 29.85 840 24.81 7.6 45.7 85 5.3 41.6
01:15 1011 29.85 840 24.81 7.7 45.8 86 5.4 41.8
01:20 1011 29.85 840 24.81 7.7 45.8 86 5.5 41.8
01:25 1011 29.85 840 24.81 7.8 46 85 5.4 41.7
01:30 1011 29.85 840 24.81 7.8 46 85 5.4 41.7
01:35 1011 29.85 840 24.81 7.8 46.1 85 5.5 41.9
01:40 1011 29.85 840 24.81 7.6 45.7 86 5.5 41.9
01:45 1011 29.85 840 24.81 7.6 45.7 87 5.6 42
01:50 1010 29.83 840 24.81 7.5 45.6 87 5.5 41.9
01:55 1010 29.83 840 24.81 7.7 45.8 86 5.5 42
02:00 1010 29.83 840 24.81 7.8 46 87 5.7 42.2
02:05 1010 29.83 840 24.81 7.7 45.9 87 5.7 42.2
02:10 1010 29.83 840 24.81 7.8 46 87 5.7 42.3
02:15 1010 29.83 840 24.81 7.7 45.9 87 5.7 42.3
02:20 1010 29.83 840 24.81 7.7 45.8 87 5.7 42.2
02:25 1010 29.83 839 24.78 7.8 46 86 5.5 41.9
02:30 1010 29.83 839 24.78 7.9 46.2 85 5.5 41.8
02:35 1010 29.83 839 24.78 8 46.3 86 5.7 42.2
02:40 1010 29.83 839 24.78 7.9 46.2 86 5.7 42.3
02:45 1010 29.83 839 24.78 7.9 46.2 87 5.8 42.4
02:50 1010 29.83 839 24.78 7.8 46.1 87 5.9 42.6
02:55 1010 29.83 839 24.78 7.8 46 87 5.7 42.3
03:00 1010 29.83 840 24.81 7.9 46.2 87 5.8 42.5
03:05 1010 29.83 840 24.81 7.9 46.2 87 5.9 42.7
03:10 1010 29.83 840 24.81 8.2 46.7 85 5.7 42.3
03:15 1010 29.83 840 24.81 8.3 47 85 5.9 42.6
03:20 1010 29.83 840 24.81 8.5 47.2 83 5.8 42.4
03:25 1010 29.83 840 24.81 8.4 47.1 84 5.8 42.4
03:30 1010 29.83 840 24.81 8.4 47 85 6.1 42.9
03:35 1010 29.83 840 24.81 8.4 47 88 6.5 43.7
03:40 1010 29.83 840 24.81 8.3 46.9 88 6.4 43.5
03:45 1010 29.83 840 24.81 8.4 47.1 86 6.2 43.1
03:50 1010 29.83 840 24.81 8.5 47.4 89 6.9 44.4
03:55 1010 29.83 840 24.81 8.3 46.9 91 6.9 44.4
04:00 1010 29.83 840 24.81 8.2 46.7 90 6.6 43.8
04:05 1010 29.83 840 24.81 8.1 46.7 89 6.4 43.5
04:10 1010 29.83 840 24.81 8 46.5 90 6.6 43.8
04:15 1010 29.83 840 24.81 7.9 46.3 91 6.5 43.7
04:20 1010 29.83 840 24.81 7.8 46.1 91 6.5 43.6
04:25 1010 29.83 840 24.81 7.8 46 92 6.6 43.9
04:30 1010 29.83 840 24.81 7.7 45.8 93 6.5 43.8
04:35 1010 29.83 839 24.78 7.6 45.7 93 6.5 43.7
04:40 1010 29.83 839 24.78 7.5 45.5 93 6.4 43.6
04:45 1010 29.83 839 24.78 7.5 45.5 93 6.5 43.7
04:50 1010 29.83 839 24.78 7.6 45.8 94 6.7 44
04:55 1010 29.83 839 24.78 7.7 45.9 93 6.6 43.9
05:00 1010 29.83 839 24.78 7.8 46 93 6.7 44
05:05 1010 29.83 839 24.78 7.8 46 92 6.6 43.9
05:10 1010 29.83 839 24.78 7.9 46.2 92 6.6 43.9
05:15 1010 29.83 839 24.78 7.9 46.3 91 6.6 43.9
05:20 1010 29.83 839 24.78 8.1 46.5 91 6.7 44
05:25 1010 29.83 839 24.78 8.1 46.6 91 6.6 44
05:30 1010 29.83 839 24.78 8.1 46.6 91 6.6 44
05:35 1010 29.83 839 24.78 8 46.4 90 6.5 43.8
05:40 1010 29.83 839 24.78 8 46.3 91 6.6 43.9
05:45 1010 29.83 839 24.78 8 46.3 91 6.5 43.8
05:50 1010 29.83 839 24.78 8 46.5 91 6.6 43.8
05:55 1010 29.83 839 24.78 8.1 46.5 91 6.6 43.9
06:00 1010 29.83 839 24.78 8.2 46.8 90 6.7 44.1
06:05 1010 29.83 839 24.78 8.4 47 89 6.7 44
06:10 1010 29.83 839 24.78 8.4 47.2 90 6.8 44.3
06:15 1010 29.83 839 24.78 8.5 47.3 90 7 44.5
06:20 1010 29.83 839 24.78 8.5 47.4 89 6.8 44.2
06:25 1010 29.83 839 24.78 8.6 47.5 89 6.9 44.4
06:30 1010 29.83 839 24.78 8.7 47.6 88 6.8 44.2
06:35 1010 29.83 840 24.81 8.7 47.7 87 6.8 44.2
06:40 1010 29.83 839 24.78 8.8 47.8 87 6.7 44.1
06:45 1010 29.83 840 24.81 8.9 48 87 6.9 44.4
06:50 1010 29.83 840 24.81 9 48.2 86 6.9 44.3
06:55 1010 29.83 840 24.81 9.1 48.3 87 7 44.5
07:00 1010 29.83 840 24.81 8.9 48.1 87 7 44.5
07:05 1010 29.83 839 24.78 9 48.2 87 6.9 44.5
07:10 1010 29.83 840 24.81 9.1 48.3 88 7.1 44.8
07:15 1010 29.83 839 24.78 9.1 48.4 89 7.3 45.2
07:20 1010 29.83 839 24.78 9.2 48.5 88 7.4 45.3
07:25 1010 29.83 839 24.78 9.2 48.6 88 7.3 45.2
07:30 1010 29.83 839 24.78 9.3 48.7 88 7.4 45.4
07:35 1010 29.83 840 24.81 9.3 48.8 88 7.4 45.2
07:40 1010 29.83 840 24.81 9.3 48.7 88 7.3 45.2
07:45 1010 29.83 840 24.81 9.2 48.6 87 7.3 45.1
07:50 1010 29.83 840 24.81 9.2 48.5 88 7.2 45
07:55 1010 29.83 840 24.81 9.2 48.6 87 7.2 45
08:00 1010 29.83 840 24.81 9.1 48.4 88 7.2 45
08:05 1010 29.83 840 24.81 9.2 48.5 88 7.3 45.2
08:10 1010 29.83 840 24.81 9.2 48.5 88 7.4 45.2
08:15 1010 29.83 840 24.81 9.2 48.5 89 7.4 45.4
08:20 1010 29.83 840 24.81 9.1 48.4 89 7.4 45.3
08:25 1010 29.83 840 24.81 9.1 48.4 89 7.4 45.3
08:30 1011 29.85 840 24.81 9.1 48.5 88 7.2 44.9
08:35 1011 29.85 840 24.81 9.1 48.5 90 7.5 45.5
08:40 1011 29.85 840 24.81 9.1 48.4 90 7.5 45.5
08:45 1011 29.85 840 24.81 9 48.1 90 7.4 45.4
08:50 1011 29.85 840 24.81 8.8 47.8 91 7.4 45.4
08:55 1011 29.85 840 24.81 8.7 47.7 93 7.6 45.6
09:00 1011 29.85 840 24.81 8.6 47.6 93 7.5 45.6
09:05 1011 29.85 840 24.81 8.7 47.6 93 7.6 45.7
09:10 1011 29.85 840 24.81 8.7 47.6 94 7.8 46
09:15 1011 29.85 840 24.81 8.7 47.6 94 7.8 46
09:20 1011 29.85 840 24.81 8.7 47.6 94 7.8 46
09:25 1011 29.85 840 24.81 8.5 47.3 95 7.7 45.9
09:30 1011 29.85 840 24.81 8.5 47.3 95 7.7 45.9
09:35 1011 29.85 840 24.81 8.4 47.2 96 7.8 46
09:40 1011 29.85 840 24.81 8.5 47.2 95 7.7 45.8
09:45 1011 29.85 840 24.81 8.4 47.2 94 7.5 45.5
09:50 1011 29.85 840 24.81 8 46.4 95 7.2 45
09:55 1011 29.85 840 24.81 7.8 46 95 7.1 44.8
10:00 1011 29.85 840 24.81 7.7 45.9 95 7 44.5
10:05 1011 29.85 840 24.81 7.5 45.6 96 6.9 44.5
10:10 1011 29.85 841 24.83 7.3 45.2 94 6.4 43.6
10:15 1012 29.88 841 24.83 7 44.7 95 6.3 43.3
10:20 1012 29.88 841 24.83 7 44.6 94 6 42.9
10:25 1012 29.88 841 24.83 6.9 44.3 94 6 42.8
10:30 1012 29.88 841 24.83 6.8 44.2 94 5.9 42.6
10:35 1012 29.88 841 24.83 6.6 43.8 94 5.6 42.1
10:40 1012 29.88 841 24.83 6.5 43.6 94 5.5 41.9
10:45 1012 29.88 841 24.83 6.3 43.4 94 5.4 41.7
10:50 1012 29.88 841 24.83 6.4 43.4 94 5.5 41.8
10:55 1012 29.88 841 24.83 6.4 43.4 94 5.4 41.7
11:00 1012 29.88 842 24.86 6.3 43.3 93 5.3 41.5
11:05 1012 29.88 842 24.86 6.2 43.2 93 5.1 41.2
11:10 1013 29.91 842 24.86 6.2 43.1 93 5.2 41.3
11:15 1013 29.91 842 24.86 6.1 43.1 94 5.2 41.3
11:20 1013 29.91 842 24.86 6.1 43.1 94 5.2 41.4
11:25 1013 29.91 842 24.86 6.2 43.2 94 5.3 41.5
11:30 1013 29.91 842 24.86 6.2 43.2 93 5.2 41.4
11:35 1013 29.91 842 24.86 6.3 43.3 94 5.4 41.7
11:40 1013 29.91 842 24.86 6.4 43.6 93 5.4 41.7
11:45 1013 29.91 842 24.86 6.5 43.7 93 5.5 41.9
11:50 1013 29.91 842 24.86 6.4 43.5 92 5.2 41.3
11:55 1013 29.91 842 24.86 6.4 43.5 93 5.3 41.6
12:00 1013 29.91 842 24.86 6.4 43.4 92 5.1 41.1
12:05 1013 29.91 842 24.86 6.4 43.6 87 4.4 39.9
12:10 1013 29.91 842 24.86 6.3 43.4 90 4.7 40.5
12:15 1013 29.91 842 24.86 6.2 43.2 90 4.7 40.4
12:20 1013 29.91 843 24.89 6.2 43.2 89 4.6 40.2
12:25 1013 29.91 843 24.89 6 42.8 92 4.8 40.6
12:30 1013 29.91 843 24.89 6 42.8 91 4.7 40.4
12:35 1014 29.94 843 24.89 6 42.7 90 4.5 40.1
12:40 1014 29.94 843 24.89 5.9 42.6 92 4.7 40.4
12:45 1014 29.94 843 24.89 5.9 42.7 90 4.4 40
12:50 1014 29.94 843 24.89 5.7 42.3 90 4.1 39.5
12:55 1014 29.94 843 24.89 5.6 42.1 90 4.2 39.5
13:00 1014 29.94 843 24.89 5.6 42 91 4.2 39.6
13:05 1014 29.94 843 24.89 5.5 42 91 4.2 39.6
13:10 1014 29.94 843 24.89 5.6 42.1 92 4.3 39.8
13:15 1014 29.94 843 24.89 5.7 42.2 91 4.3 39.8
13:20 1014 29.94 843 24.89 5.7 42.3 92 4.5 40.2
13:25 1014 29.94 843 24.89 5.7 42.3 92 4.6 40.2
13:30 1014 29.94 843 24.89 5.8 42.5 91 4.4 39.9
13:35 1014 29.94 843 24.89 5.8 42.4 92 4.5 40.2
13:40 1014 29.94 843 24.89 5.8 42.5 92 4.6 40.3
13:45 1014 29.94 843 24.89 5.8 42.4 93 4.8 40.6
13:50 1014 29.94 843 24.89 5.8 42.5 92 4.7 40.4
13:55 1014 29.94 843 24.89 5.9 42.7 91 4.5 40.2
14:00 1014 29.94 843 24.89 5.8 42.5 91 4.4 40
14:05 1014 29.94 843 24.89 5.8 42.5 91 4.5 40.1
14:10 1014 29.94 843 24.89 6 42.7 91 4.6 40.3
14:15 1014 29.94 843 24.89 6 42.8 90 4.5 40.2
14:20 1014 29.94 844 24.92 6 42.8 90 4.5 40.1
14:25 1014 29.94 844 24.92 6 42.9 88 4.3 39.7
14:30 1014 29.94 844 24.92 5.9 42.7 91 4.6 40.3
14:35 1015 29.97 844 24.92 5.9 42.7 90 4.5 40
14:40 1015 29.97 844 24.92 5.9 42.7 92 4.7 40.4
14:45 1015 29.97 844 24.92 6 42.8 89 4.3 39.8
14:50 1015 29.97 844 24.92 6.2 43.1 89 4.4 39.9
14:55 1015 29.97 844 24.92 6.1 42.9 91 4.7 40.4
15:00 1015 29.97 844 24.92 6 42.9 93 5 40.9
15:05 1015 29.97 844 24.92 6 42.9 91 4.7 40.5
15:10 1015 29.97 844 24.92 6 42.8 92 4.7 40.5
15:15 1015 29.97 844 24.92 6.2 43.1 92 5 41
15:20 1015 29.97 844 24.92 6.1 43 91 4.7 40.5
15:25 1015 29.97 844 24.92 6 42.9 92 4.8 40.6
15:30 1015 29.97 844 24.92 6.1 42.9 91 4.8 40.6
15:35 1015 29.97 844 24.92 6.1 43 92 4.8 40.7
15:40 1015 29.97 845 24.95 6.1 43 91 4.7 40.5
15:45 1015 29.97 845 24.95 6.2 43.1 92 5 40.9
15:50 1015 29.97 845 24.95 6.3 43.4 90 4.8 40.7
15:55 1016 30 845 24.95 6.2 43.2 90 4.7 40.5
16:00 1016 30 845 24.95 6.1 42.9 90 4.6 40.3
16:05 1016 30 845 24.95 6.1 42.9 89 4.4 39.9
16:10 1016 30 845 24.95 5.9 42.6 89 4.3 39.7
16:15 1016 30 845 24.95 5.9 42.7 89 4.3 39.8
16:20 1016 30 845 24.95 5.9 42.7 92 4.6 40.4
16:25 1016 30 845 24.95 6 42.9 92 4.8 40.7
16:30 1016 30 845 24.95 6.1 43 90 4.6 40.3
16:35 1016 30 845 24.95 6.1 43 92 4.9 40.8
16:40 1016 30 845 24.95 6 42.8 88 4.1 39.5
16:45 1016 30 845 24.95 5.8 42.5 90 4.3 39.7
16:50 1016 30 845 24.95 5.8 42.5 90 4.3 39.7
16:55 1016 30 845 24.95 5.9 42.6 88 4.1 39.4
17:00 1016 30 845 24.95 5.8 42.5 89 4.2 39.5
17:05 1016 30 845 24.95 5.8 42.4 89 4.2 39.5
17:10 1016 30 845 24.95 5.9 42.5 92 4.6 40.2
17:15 1016 30 845 24.95 6 42.8 90 4.4 39.9
17:20 1016 30 845 24.95 6 42.9 89 4.3 39.8
17:25 1016 30 846 24.98 6 42.7 90 4.5 40
17:30 1016 30 846 24.98 6 42.8 90 4.5 40.1
17:35 1016 30 846 24.98 6.1 42.9 92 4.8 40.7
17:40 1016 30 846 24.98 6.2 43.2 90 4.7 40.5
17:45 1016 30 846 24.98 6.2 43.2 89 4.5 40.1
17:50 1016 30 846 24.98 5.9 42.6 90 4.4 39.9
17:55 1016 30 846 24.98 5.8 42.4 92 4.6 40.3
18:00 1016 30 846 24.98 5.9 42.6 93 4.8 40.6
18:05 1016 30 846 24.98 6 42.9 91 4.8 40.6
18:10 1016 30 846 24.98 6.1 43.1 90 4.7 40.5
18:15 1016 30 846 24.98 6.1 43 92 4.9 40.7
18:20 1017 30.03 846 24.98 6.2 43.1 93 5.1 41.2
18:25 1017 30.03 846 24.98 6.2 43.2 92 5 41
18:30 1017 30.03 846 24.98 6.3 43.3 92 5.1 41.2
18:35 1017 30.03 846 24.98 6.3 43.4 93 5.3 41.5
18:40 1017 30.03 846 24.98 6.4 43.5 93 5.4 41.7
18:45 1017 30.03 846 24.98 6.3 43.4 91 5 41
18:50 1017 30.03 846 24.98 6.4 43.6 90 5 41
18:55 1017 30.03 846 24.98 6.4 43.6 89 4.8 40.6
19:00 1017 30.03 846 24.98 6.4 43.6 89 4.8 40.7
19:05 1017 30.03 846 24.98 6.5 43.7 90 4.9 40.9
19:10 1017 30.03 846 24.98 6.6 43.8 88 4.8 40.6
19:15 1017 30.03 846 24.98 6.7 44 89 5 41
19:20 1017 30.03 846 24.98 6.9 44.4 90 5.3 41.6
19:25 1017 30.03 846 24.98 7 44.6 88 5.2 41.3
19:30 1017 30.03 846 24.98 6.9 44.5 87 4.9 40.8
19:35 1017 30.03 846 24.98 7 44.5 87 5 41
19:40 1017 30.03 846 24.98 7.1 44.8 89 5.4 41.8
19:45 1017 30.03 846 24.98 7.3 45.2 89 5.7 42.3
19:50 1017 30.03 846 24.98 7.4 45.4 87 5.4 41.8
19:55 1017 30.03 846 24.98 7.5 45.5 85 5.2 41.3
20:00 1017 30.03 846 24.98 7.6 45.7 88 5.7 42.3
20:05 1017 30.03 846 24.98 7.5 45.5 89 5.8 42.4
20:10 1017 30.03 846 24.98 7.4 45.2 87 5.3 41.5
20:15 1017 30.03 846 24.98 7.4 45.2 89 5.7 42.2
20:20 1017 30.03 846 24.98 6.9 44.5 92 5.7 42.3
20:25 1017 30.03 846 24.98 7 44.6 92 5.8 42.5
20:30 1017 30.03 846 24.98 7.1 44.8 88 5.2 41.4
20:35 1017 30.03 846 24.98 7.2 45 90 5.8 42.4
20:40 1017 30.03 846 24.98 7.3 45.1 90 5.7 42.3
20:45 1017 30.03 846 24.98 7 44.6 93 5.9 42.6
20:50 1017 30.03 846 24.98 6.7 44.1 94 5.8 42.4
20:55 1017 30.03 846 24.98 6.8 44.2 90 5.2 41.3
21:00 1017 30.03 846 24.98 6.9 44.4 92 5.6 42.1
21:05 1017 30.03 846 24.98 6.9 44.4 94 5.9 42.7
21:10 1017 30.03 846 24.98 6.8 44.3 94 5.9 42.5
21:15 1017 30.03 846 24.98 6.7 44 95 5.8 42.5
21:20 1017 30.03 846 24.98 6.5 43.7 94 5.6 42.1
21:25 1017 30.03 846 24.98 6.5 43.7 95 5.7 42.3
21:30 1017 30.03 846 24.98 6.5 43.7 94 5.6 42.1
21:35 1017 30.03 846 24.98 6.6 43.8 94 5.6 42.2
21:40 1017 30.03 847 25.01 6.6 43.9 95 5.8 42.5
21:45 1017 30.03 846 24.98 6.6 44 94 5.8 42.4
21:50 1017 30.03 847 25.01 6.7 44 95 5.9 42.5
21:55 1017 30.03 847 25.01 6.6 43.9 95 5.9 42.6
22:00 1017 30.03 847 25.01 6.5 43.8 96 5.9 42.6
22:05 1018 30.06 847 25.01 6.6 43.8 95 5.8 42.4
22:10 1018 30.06 847 25.01 6.6 43.9 94 5.7 42.2
22:15 1018 30.06 847 25.01 6.5 43.8 91 5.2 41.4
22:20 1018 30.06 847 25.01 6.6 43.8 93 5.5 41.9
22:25 1018 30.06 847 25.01 6.6 43.9 95 5.8 42.4
22:30 1018 30.06 847 25.01 6.6 43.9 95 5.8 42.5
22:35 1018 30.06 847 25.01 6.7 44 92 5.4 41.8
22:40 1018 30.06 847 25.01 6.6 43.9 91 5.2 41.3
22:45 1018 30.06 847 25.01 6.5 43.6 91 5.1 41.3
22:50 1018 30.06 847 25.01 6.3 43.4 90 4.9 40.7
22:55 1018 30.06 847 25.01 6.2 43.2 92 5 41.1
23:00 1018 30.06 847 25.01 6.1 43 88 4.2 39.6
23:05 1018 30.06 847 25.01 5.9 42.6 88 4 39.3
23:10 1018 30.06 847 25.01 5.8 42.5 86 3.7 38.6
23:15 1018 30.06 847 25.01 5.9 42.6 87 3.9 39
23:20 1018 30.06 847 25.01 5.9 42.5 86 3.7 38.6
23:25 1018 30.06 847 25.01 5.8 42.5 85 3.5 38.3
23:30 1018 30.06 847 25.01 5.8 42.4 84 3.2 37.8
23:35 1018 30.06 847 25.01 5.8 42.4 84 3.3 37.9
23:40 1018 30.06 847 25.01 5.8 42.4 88 4 39.1
23:45 1018 30.06 847 25.01 5.6 42 88 3.8 38.8
23:50 1018 30.06 847 25.01 5.4 41.7 87 3.4 38.2
23:55 1018 30.06 847 25.01 5.5 41.9 87 3.6 38.4
24:00 1018 30.06 847 25.01 5.5 41.9 89 3.8 38.8